Elafonisos — D5HH7 — position and weather

sailwx.info

Track history (hours):
 
Tides and Currents Weather Stations Pressure Air Temp Water Temp Dewpoint Dewpoint Depression Visibility Wind Speed Wind Dir Waves Ship Positions

Elafonisos

Last reported at 2017-Sep-26 18:30 UTC. Time now 2017-Sep-26 18:39 UTC.
Position N 36°30' E 030°43'.

Length 209 m; draft 7.4 m.

Type: Cargo ship. MMSI: 636016689.

Date/timePositionNaut miles runAvg speedWind from/ knotsBaromVisibWave heightAir tempDewpointWater temp
2017-Sep-26 18:30N 36°30' E 030°43'612.1
2017-Sep-26 18:00N 36°24' E 030°45'612.2
2017-Sep-26 17:30N 36°18' E 030°46'912.0
2017-Sep-26 16:47N 36°09' E 030°47'289 7.6
2017-Sep-25 02:46N 32°49' E 035°01'3 0.1
2017-Sep-24 05:21N 32°52' E 035°01'  
2017-Sep-21 00:55N 33°17' E 034°06'612.8
2017-Sep-21 00:27N 33°11' E 034°05'812.6
2017-Sep-20 23:48N 33°03' E 034°03'412.3
2017-Sep-20 23:31N 32°59' E 034°02'812.1
2017-Sep-20 22:53N 32°52' E 034°00'512.0
2017-Sep-20 22:28N 32°47' E 033°59'612.0
2017-Sep-20 22:00N 32°42' E 033°57'2011.9
2017-Sep-20 20:17N 32°22' E 033°53'311.6
2017-Sep-20 20:00N 32°18' E 033°52'611.7
2017-Sep-20 19:31N 32°13' E 033°50'510.0
2017-Sep-20 19:00N 32°08' E 033°53'612.1
2017-Sep-20 18:29N 32°05' E 033°59'1012.3
2017-Sep-20 17:40N 32°01' E 034°10'212.4
2017-Sep-20 17:29N 32°01' E 034°13'612.5
2017-Sep-20 17:00N 31°58' E 034°19'1012.3
2017-Sep-20 16:14N 31°54' E 034°29'712.0
2017-Sep-20 15:39N 31°52' E 034°37'1 9.7
2017-Sep-20 15:30N 31°51' E 034°38'0 0.0
2017-Sep-19 05:59N 31°50' E 034°38'4 3.4
2017-Sep-19 04:55N 31°52' E 034°35'53511.6
2017-Sep-17 06:56N 36°02' E 025°04'1112.5
2017-Sep-17 06:05N 36°08' E 024°54'112.5
2017-Sep-17 06:00N 36°09' E 024°53'612.6
2017-Sep-17 05:31N 36°13' E 024°47'612.4
2017-Sep-17 05:00N 36°17' E 024°41'1312.3
2017-Sep-17 03:59N 36°25' E 024°29'612.0
2017-Sep-17 03:30N 36°29' E 024°23'612.4
2017-Sep-17 03:00N 36°33' E 024°17'612.4
2017-Sep-17 02:30N 36°37' E 024°12'612.4
2017-Sep-17 02:01N 36°41' E 024°06'612.3
2017-Sep-17 01:30N 36°46' E 024°01'612.2
2017-Sep-17 01:00N 36°52' E 023°59'612.0
2017-Sep-17 00:30N 36°58' E 023°57'612.0
2017-Sep-17 00:00N 37°03' E 023°55'611.8
2017-Sep-16 23:31N 37°09' E 023°53'611.8
2017-Sep-16 23:01N 37°15' E 023°52'4 8.7
2017-Sep-16 22:31N 37°19' E 023°51'3 6.3
2017-Sep-16 22:00N 37°22' E 023°50'510.8
2017-Sep-16 21:30N 37°27' E 023°48'612.1
2017-Sep-16 21:00N 37°33' E 023°46'612.1
2017-Sep-16 20:31N 37°39' E 023°43'612.2
2017-Sep-16 20:01N 37°44' E 023°40'612.2
2017-Sep-16 19:31N 37°50' E 023°37'611.8
2017-Sep-16 19:00N 37°56' E 023°36'  
Track history (hours):
 
Tides and Currents Weather Stations Pressure Air Temp Water Temp Dewpoint Dewpoint Depression Visibility Wind Speed Wind Dir Waves Ship Positions

Elafonisos

Last reported at 2017-Sep-26 18:30 UTC. Time now 2017-Sep-26 18:39 UTC.
Position N 36°30' E 030°43'.

Length 209 m; draft 7.4 m.

Type: Cargo ship. MMSI: 636016689.

Date/timePositionNaut miles runAvg speedWind from/ knotsBaromVisibWave heightAir tempDewpointWater temp
2017-Sep-26 18:30N 36°30' E 030°43'612.1
2017-Sep-26 18:00N 36°24' E 030°45'612.2
2017-Sep-26 17:30N 36°18' E 030°46'912.0
2017-Sep-26 16:47N 36°09' E 030°47'289 7.6
2017-Sep-25 02:46N 32°49' E 035°01'3 0.1
2017-Sep-24 05:21N 32°52' E 035°01'  
2017-Sep-21 00:55N 33°17' E 034°06'612.8
2017-Sep-21 00:27N 33°11' E 034°05'812.6
2017-Sep-20 23:48N 33°03' E 034°03'412.3
2017-Sep-20 23:31N 32°59' E 034°02'812.1
2017-Sep-20 22:53N 32°52' E 034°00'512.0
2017-Sep-20 22:28N 32°47' E 033°59'612.0
2017-Sep-20 22:00N 32°42' E 033°57'2011.9
2017-Sep-20 20:17N 32°22' E 033°53'311.6
2017-Sep-20 20:00N 32°18' E 033°52'611.7
2017-Sep-20 19:31N 32°13' E 033°50'510.0
2017-Sep-20 19:00N 32°08' E 033°53'612.1
2017-Sep-20 18:29N 32°05' E 033°59'1012.3
2017-Sep-20 17:40N 32°01' E 034°10'212.4
2017-Sep-20 17:29N 32°01' E 034°13'612.5
2017-Sep-20 17:00N 31°58' E 034°19'1012.3
2017-Sep-20 16:14N 31°54' E 034°29'712.0
2017-Sep-20 15:39N 31°52' E 034°37'1 9.7
2017-Sep-20 15:30N 31°51' E 034°38'0 0.0
2017-Sep-19 05:59N 31°50' E 034°38'4 3.4
2017-Sep-19 04:55N 31°52' E 034°35'53511.6
2017-Sep-17 06:56N 36°02' E 025°04'1112.5
2017-Sep-17 06:05N 36°08' E 024°54'112.5
2017-Sep-17 06:00N 36°09' E 024°53'612.6
2017-Sep-17 05:31N 36°13' E 024°47'612.4
2017-Sep-17 05:00N 36°17' E 024°41'1312.3
2017-Sep-17 03:59N 36°25' E 024°29'612.0
2017-Sep-17 03:30N 36°29' E 024°23'612.4
2017-Sep-17 03:00N 36°33' E 024°17'612.4
2017-Sep-17 02:30N 36°37' E 024°12'612.4
2017-Sep-17 02:01N 36°41' E 024°06'612.3
2017-Sep-17 01:30N 36°46' E 024°01'612.2
2017-Sep-17 01:00N 36°52' E 023°59'612.0
2017-Sep-17 00:30N 36°58' E 023°57'612.0
2017-Sep-17 00:00N 37°03' E 023°55'611.8
2017-Sep-16 23:31N 37°09' E 023°53'611.8
2017-Sep-16 23:01N 37°15' E 023°52'4 8.7
2017-Sep-16 22:31N 37°19' E 023°51'3 6.3
2017-Sep-16 22:00N 37°22' E 023°50'510.8
2017-Sep-16 21:30N 37°27' E 023°48'612.1
2017-Sep-16 21:00N 37°33' E 023°46'612.1
2017-Sep-16 20:31N 37°39' E 023°43'612.2
2017-Sep-16 20:01N 37°44' E 023°40'612.2
2017-Sep-16 19:31N 37°50' E 023°37'611.8
2017-Sep-16 19:00N 37°56' E 023°36'  

Dump ship's entire track history